Time;durP1;ratioP1;P1;durP2;ratioP2;P2;SDS_P1;SDS_P2;PMS_P1;PMS_P2;Temp;Humidity;BMP_temperature;BMP_pressure;BME280_temperature;BME280_humidity;BME280_pressure;Samples;Min_cycle;Max_cycle;Signal;HPM_P1;HPM_P2
2021/05/02 00:01:06;;;;;;;23.57;16.30;;;11.20;1.00;;;;;;4905283;29;20472;-75
2021/05/02 00:03:34;;;;;;;23.83;16.57;;;11.10;1.00;;;;;;4899318;29;20462;-77
2021/05/02 00:06:02;;;;;;;23.37;16.50;;;11.10;1.00;;;;;;4899566;29;20478;-77
2021/05/02 00:08:30;;;;;;;19.10;14.30;;;11.10;1.00;;;;;;4898197;29;20479;-77
2021/05/02 00:10:57;;;;;;;23.13;15.90;;;11.00;1.00;;;;;;4896472;29;20506;-77
2021/05/02 00:13:25;;;;;;;24.50;15.47;;;11.00;1.00;;;;;;4906141;29;20613;-76
2021/05/02 00:15:52;;;;;;;20.93;16.60;;;10.90;1.00;;;;;;4901694;29;20550;-74
2021/05/02 00:18:24;;;;;;;18.93;15.87;;;10.80;1.00;;;;;;4903739;29;20514;-77
2021/05/02 00:20:53;;;;;;;22.67;16.23;;;10.80;1.00;;;;;;4904612;29;20561;-75
2021/05/02 00:23:21;;;;;;;17.10;13.40;;;10.90;1.00;;;;;;4899546;29;20527;-75
2021/05/02 00:25:49;;;;;;;21.33;14.50;;;10.90;1.00;;;;;;4897963;29;20539;-79
2021/05/02 00:28:16;;;;;;;21.57;17.07;;;10.90;1.00;;;;;;4891039;29;20487;-75
2021/05/02 00:30:46;;;;;;;21.87;15.80;;;10.90;1.00;;;;;;4896928;29;20490;-76
2021/05/02 00:33:14;;;;;;;23.23;17.40;;;10.90;1.00;;;;;;4900817;29;20484;-76
2021/05/02 00:35:42;;;;;;;22.53;16.73;;;10.80;1.00;;;;;;4900355;29;20468;-78
2021/05/02 00:38:10;;;;;;;22.73;18.10;;;10.90;1.00;;;;;;4918795;29;21032;-74
2021/05/02 00:40:39;;;;;;;20.07;16.00;;;10.90;1.00;;;;;;4888579;29;20496;-78
2021/05/02 00:43:08;;;;;;;20.87;15.90;;;10.90;1.00;;;;;;4898299;29;20665;-75
2021/05/02 00:45:41;;;;;;;17.30;14.83;;;10.80;1.00;;;;;;4906958;29;20496;-76
2021/05/02 00:48:17;;;;;;;25.20;18.50;;;10.90;1.00;;;;;;4902501;29;20512;-76
2021/05/02 00:50:50;;;;;;;22.17;16.17;;;10.90;1.00;;;;;;4898070;29;20499;-74
2021/05/02 00:53:24;;;;;;;21.20;17.40;;;10.80;1.00;;;;;;4915472;29;20483;-76
2021/05/02 00:55:57;;;;;;;21.60;16.57;;;10.80;1.00;;;;;;4896156;29;20486;-76
2021/05/02 00:58:32;;;;;;;22.03;16.37;;;10.80;1.00;;;;;;4893220;29;20468;-77
2021/05/02 01:01:01;;;;;;;19.30;15.57;;;10.80;1.00;;;;;;4891323;29;20850;-76
2021/05/02 01:03:33;;;;;;;19.30;15.30;;;10.90;1.00;;;;;;4893968;29;20474;-76
2021/05/02 01:06:06;;;;;;;18.60;15.30;;;10.90;1.00;;;;;;4899246;29;20465;-77
2021/05/02 01:08:35;;;;;;;19.57;15.23;;;10.90;1.00;;;;;;4893199;29;20479;-77
2021/05/02 01:11:05;;;;;;;20.30;15.83;;;10.90;1.00;;;;;;4897115;29;20475;-79
2021/05/02 01:13:37;;;;;;;22.43;16.20;;;10.90;1.00;;;;;;4906452;29;20851;-79
2021/05/02 01:16:06;;;;;;;16.97;14.87;;;10.90;1.00;;;;;;4902418;29;20529;-77
2021/05/02 01:18:36;;;;;;;15.63;13.40;;;10.80;1.00;;;;;;4898528;29;20904;-77
2021/05/02 01:21:04;;;;;;;16.20;14.33;;;10.80;1.00;;;;;;4902252;29;21061;-77
2021/05/02 01:23:35;;;;;;;17.17;13.73;;;10.70;1.00;;;;;;4902320;29;20464;-80
2021/05/02 01:26:02;;;;;;;16.93;13.70;;;10.70;1.00;;;;;;4901594;29;20560;-77
2021/05/02 01:28:30;;;;;;;18.20;14.00;;;10.80;1.00;;;;;;4894455;29;20475;-74
2021/05/02 01:30:58;;;;;;;14.83;13.20;;;10.80;1.00;;;;;;4902734;29;20484;-77
2021/05/02 01:33:25;;;;;;;14.33;11.47;;;10.80;1.00;;;;;;4911972;29;20495;-77
2021/05/02 01:35:55;;;;;;;17.07;12.93;;;10.80;1.00;;;;;;4896486;29;20933;-78
2021/05/02 01:38:24;;;;;;;15.20;12.13;;;10.80;1.00;;;;;;4899234;29;20521;-77
2021/05/02 01:40:54;;;;;;;14.60;12.83;;;10.80;99.90;;;;;;4903439;29;20485;-77
2021/05/02 01:43:22;;;;;;;15.10;12.53;;;10.70;99.90;;;;;;4895622;29;20476;-78
2021/05/02 01:45:49;;;;;;;15.90;12.87;;;10.70;99.90;;;;;;4903518;29;20543;-76
2021/05/02 01:48:18;;;;;;;14.07;12.57;;;10.60;99.90;;;;;;4911501;29;20541;-79
2021/05/02 01:50:47;;;;;;;14.07;12.57;;;10.50;99.90;;;;;;4899172;29;20560;-77
2021/05/02 01:53:15;;;;;;;12.37;11.10;;;10.50;99.90;;;;;;4901688;29;20493;-76
2021/05/02 01:55:43;;;;;;;15.70;13.33;;;10.50;99.90;;;;;;4900787;29;20479;-78
2021/05/02 01:58:11;;;;;;;16.37;11.53;;;10.50;99.90;;;;;;4897082;29;20482;-77
2021/05/02 02:00:45;;;;;;;13.33;11.93;;;10.50;99.90;;;;;;4889622;29;20918;-78
2021/05/02 02:03:13;;;;;;;15.63;12.40;;;10.60;99.90;;;;;;4899523;29;20462;-77
2021/05/02 02:05:41;;;;;;;13.63;12.23;;;10.60;99.90;;;;;;4894730;29;20462;-76
2021/05/02 02:08:09;;;;;;;14.10;12.07;;;10.50;99.90;;;;;;4906764;29;20535;-78
2021/05/02 02:10:38;;;;;;;13.00;11.63;;;10.50;99.90;;;;;;4886437;29;20501;-75
2021/05/02 02:13:09;;;;;;;14.50;12.67;;;10.50;99.90;;;;;;4895426;29;20612;-77
2021/05/02 02:15:38;;;;;;;15.30;12.93;;;10.50;99.90;;;;;;4889158;29;20585;-75
2021/05/02 02:18:05;;;;;;;13.20;11.17;;;10.50;99.90;;;;;;4903228;29;20473;-77
2021/05/02 02:20:37;;;;;;;13.17;11.50;;;10.50;99.90;;;;;;4903357;29;20567;-75
2021/05/02 02:23:13;;;;;;;13.57;12.27;;;10.50;99.90;;;;;;4891354;29;20533;-75
2021/05/02 02:25:44;;;;;;;14.97;10.50;;;10.50;99.90;;;;;;4895203;29;20475;-77
2021/05/02 02:28:14;;;;;;;14.93;12.80;;;10.50;99.90;;;;;;4898713;29;20466;-76
2021/05/02 02:30:44;;;;;;;12.83;11.53;;;10.40;1.00;;;;;;4899107;29;20705;-76
2021/05/02 02:33:12;;;;;;;15.07;12.50;;;10.50;1.00;;;;;;4897764;29;22018;-77
2021/05/02 02:35:47;;;;;;;12.90;11.37;;;10.40;1.00;;;;;;4895505;29;20477;-76
2021/05/02 02:38:18;;;;;;;13.80;12.40;;;10.40;1.00;;;;;;4893467;29;20486;-77
2021/05/02 02:40:48;;;;;;;14.03;12.60;;;10.40;1.00;;;;;;4888178;29;21112;-76
2021/05/02 02:43:21;;;;;;;15.60;13.83;;;10.50;1.00;;;;;;4893193;29;20471;-75
2021/05/02 02:45:52;;;;;;;14.47;12.40;;;10.50;1.00;;;;;;4906159;29;20488;-75
2021/05/02 02:48:23;;;;;;;15.40;12.87;;;10.40;1.00;;;;;;4904643;29;20483;-77
2021/05/02 02:50:52;;;;;;;14.63;13.13;;;10.40;1.00;;;;;;4892469;29;20489;-77
2021/05/02 02:53:21;;;;;;;17.70;13.90;;;10.50;1.00;;;;;;4898769;29;20501;-76
2021/05/02 02:56:00;;;;;;;15.50;13.90;;;10.40;1.00;;;;;;4899387;29;20465;-77
2021/05/02 02:58:33;;;;;;;16.10;13.77;;;10.40;1.00;;;;;;4906711;29;20458;-74
2021/05/02 03:01:04;;;;;;;14.43;12.93;;;10.40;1.00;;;;;;4890650;29;20865;-77
2021/05/02 03:03:32;;;;;;;18.10;14.30;;;10.40;1.00;;;;;;4906509;29;20481;-78
2021/05/02 03:06:01;;;;;;;18.02;16.15;;;10.40;1.00;;;;;;4891599;29;20552;-77
2021/05/02 03:08:30;;;;;;;14.90;13.40;;;10.40;1.00;;;;;;4892323;29;20485;-75
2021/05/02 03:10:58;;;;;;;17.07;15.27;;;10.40;1.00;;;;;;4909128;29;20610;-76
2021/05/02 03:13:25;;;;;;;15.83;14.30;;;10.40;1.00;;;;;;4891039;29;20493;-75
2021/05/02 03:15:53;;;;;;;17.57;15.30;;;10.40;1.00;;;;;;4893282;29;20464;-77
2021/05/02 03:18:24;;;;;;;16.00;12.93;;;10.30;1.00;;;;;;4909584;29;20549;-78
2021/05/02 03:20:58;;;;;;;17.43;14.50;;;10.40;1.00;;;;;;4889900;29;20987;-76
2021/05/02 03:23:31;;;;;;;15.93;13.67;;;10.40;1.00;;;;;;4896159;29;20469;-75
2021/05/02 03:26:02;;;;;;;17.77;14.40;;;10.30;1.00;;;;;;4905429;29;20477;-76
2021/05/02 03:28:35;;;;;;;16.50;14.83;;;10.40;1.00;;;;;;4907216;29;20468;-78
2021/05/02 03:31:06;;;;;;;17.97;14.43;;;10.40;1.00;;;;;;4892401;29;21015;-76
2021/05/02 03:33:41;;;;;;;17.50;15.60;;;10.50;99.90;;;;;;4896569;29;20501;-78
2021/05/02 03:36:11;;;;;;;16.57;14.20;;;10.50;99.90;;;;;;4887832;29;21148;-75
2021/05/02 03:38:46;;;;;;;15.10;13.50;;;10.40;1.00;;;;;;4901267;29;21131;-76
2021/05/02 03:41:14;;;;;;;16.10;14.40;;;10.40;1.00;;;;;;4896593;29;20499;-78
2021/05/02 03:43:41;;;;;;;17.87;13.90;;;10.30;1.00;;;;;;4887397;29;20937;-76
2021/05/02 03:46:23;;;;;;;17.40;13.87;;;10.20;1.00;;;;;;4904087;29;20935;-79
2021/05/02 03:48:56;;;;;;;16.30;14.57;;;10.20;1.00;;;;;;4889591;29;21003;-78
2021/05/02 03:51:24;;;;;;;17.10;13.00;;;10.20;1.00;;;;;;4919471;29;20465;-77
2021/05/02 03:53:52;;;;;;;18.13;14.30;;;10.50;1.00;;;;;;4885619;29;20503;-78
2021/05/02 03:56:33;;;;;;;14.70;13.20;;;10.20;1.00;;;;;;4887743;29;20526;-76
2021/05/02 03:59:05;;;;;;;17.63;14.50;;;10.10;1.00;;;;;;4890383;29;20553;-78
2021/05/02 04:01:32;;;;;;;16.40;14.53;;;10.20;1.00;;;;;;4890647;29;20467;-77
2021/05/02 04:04:01;;;;;;;16.83;14.90;;;10.10;1.00;;;;;;4893062;29;21012;-74
2021/05/02 04:06:28;;;;;;;17.77;13.47;;;10.10;1.00;;;;;;4892054;29;21294;-76
2021/05/02 04:08:55;;;;;;;16.20;14.50;;;10.10;1.00;;;;;;4898037;29;20484;-79
2021/05/02 04:11:22;;;;;;;14.63;13.00;;;10.10;1.00;;;;;;4892997;29;20561;-75
2021/05/02 04:13:50;;;;;;;15.10;13.50;;;10.10;1.00;;;;;;4898414;29;20518;-76
2021/05/02 04:16:17;;;;;;;16.13;13.73;;;10.00;1.00;;;;;;4901735;29;20476;-78
2021/05/02 04:18:44;;;;;;;20.50;16.13;;;10.00;1.00;;;;;;4910073;29;20533;-76
2021/05/02 04:21:13;;;;;;;15.97;14.37;;;10.00;1.00;;;;;;4898802;29;20500;-77
2021/05/02 04:23:40;;;;;;;19.23;14.80;;;10.00;1.00;;;;;;4899291;29;20564;-74
2021/05/02 04:26:07;;;;;;;17.20;15.37;;;9.90;1.00;;;;;;4893267;29;21075;-75
2021/05/02 04:28:34;;;;;;;20.20;14.73;;;9.80;1.00;;;;;;4896770;29;21038;-76
2021/05/02 04:31:01;;;;;;;15.37;13.87;;;9.80;1.00;;;;;;4900674;29;20468;-76
2021/05/02 04:33:28;;;;;;;18.60;15.40;;;9.90;1.00;;;;;;4900615;29;21073;-76
2021/05/02 04:35:56;;;;;;;19.03;15.60;;;9.80;1.00;;;;;;4906450;29;20878;-75
2021/05/02 04:38:25;;;;;;;16.13;14.17;;;9.80;1.00;;;;;;4902464;29;20488;-76
2021/05/02 04:40:52;;;;;;;16.17;14.40;;;9.80;1.00;;;;;;4897087;29;20879;-76
2021/05/02 04:43:19;;;;;;;15.97;14.27;;;9.90;1.00;;;;;;4890013;29;20541;-78
2021/05/02 04:45:47;;;;;;;17.93;14.30;;;10.00;1.00;;;;;;4897003;29;20465;-76
2021/05/02 04:48:14;;;;;;;16.50;14.50;;;9.90;1.00;;;;;;4924646;29;20923;-75
2021/05/02 04:50:41;;;;;;;16.37;14.13;;;9.80;1.00;;;;;;4891009;29;20487;-77
2021/05/02 04:53:09;;;;;;;17.60;15.47;;;9.90;1.00;;;;;;4914969;29;20497;-76
2021/05/02 04:55:37;;;;;;;16.77;14.97;;;9.90;1.00;;;;;;4894605;29;20995;-74
2021/05/02 04:58:06;;;;;;;18.17;14.30;;;9.80;1.00;;;;;;4898307;29;20479;-76
2021/05/02 05:00:34;;;;;;;18.57;15.33;;;9.70;1.00;;;;;;4897903;29;20496;-76
2021/05/02 05:03:02;;;;;;;20.97;15.17;;;9.80;1.00;;;;;;4920403;29;21000;-78
2021/05/02 05:05:30;;;;;;;18.63;15.30;;;9.80;1.00;;;;;;4907303;29;20563;-75
2021/05/02 05:07:57;;;;;;;18.70;13.47;;;9.90;1.00;;;;;;4899425;29;20532;-75
2021/05/02 05:10:24;;;;;;;17.63;14.47;;;9.90;1.00;;;;;;4899359;29;20501;-76
2021/05/02 05:12:52;;;;;;;15.30;13.50;;;10.00;1.00;;;;;;4890960;29;20467;-77
2021/05/02 05:15:19;;;;;;;16.70;14.07;;;10.00;1.00;;;;;;4901198;29;20535;-75
2021/05/02 05:17:46;;;;;;;16.10;13.90;;;10.10;99.90;;;;;;4906924;29;20523;-78
2021/05/02 05:20:14;;;;;;;16.70;14.03;;;10.10;99.90;;;;;;4895753;29;20501;-74
2021/05/02 05:22:41;;;;;;;14.77;13.03;;;10.10;1.00;;;;;;4895459;29;20475;-75
2021/05/02 05:25:09;;;;;;;15.70;14.10;;;10.10;1.00;;;;;;4894172;29;20472;-77
2021/05/02 05:27:36;;;;;;;16.90;13.73;;;10.10;1.00;;;;;;4890264;29;21098;-77
2021/05/02 05:30:05;;;;;;;14.80;13.20;;;10.10;1.00;;;;;;4918819;29;20491;-79
2021/05/02 05:32:32;;;;;;;17.70;13.60;;;10.00;1.00;;;;;;4905029;29;20479;-75
2021/05/02 05:35:00;;;;;;;16.70;15.00;;;10.00;1.00;;;;;;4896883;29;20500;-77
2021/05/02 05:37:27;;;;;;;17.37;14.70;;;10.00;1.00;;;;;;4900117;29;22212;-77
2021/05/02 05:39:54;;;;;;;15.40;13.77;;;10.00;1.00;;;;;;4902179;29;20508;-76
2021/05/02 05:42:21;;;;;;;17.37;13.60;;;9.90;1.00;;;;;;4895862;29;20483;-79
2021/05/02 05:44:48;;;;;;;17.90;15.30;;;10.00;1.00;;;;;;4900797;29;20531;-77
2021/05/02 05:47:17;;;;;;;15.83;13.93;;;10.10;1.00;;;;;;4910765;29;20474;-76
2021/05/02 05:49:44;;;;;;;18.03;13.97;;;10.10;1.00;;;;;;4903022;29;20506;-78
2021/05/02 05:52:12;;;;;;;19.10;13.63;;;10.10;1.00;;;;;;4893098;29;20891;-78
2021/05/02 05:54:41;;;;;;;15.87;14.17;;;10.10;1.00;;;;;;4893545;29;20556;-77
2021/05/02 05:57:08;;;;;;;19.10;15.47;;;10.00;1.00;;;;;;4894179;29;20550;-76
2021/05/02 05:59:36;;;;;;;15.20;13.60;;;10.00;1.00;;;;;;4897691;29;20489;-78
2021/05/02 06:02:04;;;;;;;16.83;15.02;;;10.10;1.00;;;;;;4913243;29;20462;-79
2021/05/02 06:04:32;;;;;;;17.67;14.53;;;10.10;1.00;;;;;;4894336;29;20215;-77
2021/05/02 06:07:01;;;;;;;15.50;13.90;;;10.20;1.00;;;;;;4906087;29;20473;-79
2021/05/02 06:09:28;;;;;;;15.83;13.63;;;10.20;1.00;;;;;;4909917;29;20506;-77
2021/05/02 06:11:55;;;;;;;14.57;13.00;;;10.20;1.00;;;;;;4893659;29;20463;-76
2021/05/02 06:14:22;;;;;;;15.80;14.10;;;10.10;1.00;;;;;;4893964;29;20487;-80
2021/05/02 06:16:49;;;;;;;14.00;12.07;;;10.20;1.00;;;;;;4892605;29;20556;-78
2021/05/02 06:19:17;;;;;;;14.10;12.50;;;10.20;1.00;;;;;;4885836;29;20496;-78
2021/05/02 06:21:45;;;;;;;18.00;12.87;;;10.30;1.00;;;;;;4909986;29;21072;-80
2021/05/02 06:24:12;;;;;;;15.90;14.30;;;10.30;1.00;;;;;;4895429;29;20992;-80
2021/05/02 06:26:39;;;;;;;13.93;12.43;;;10.30;1.00;;;;;;4892760;29;20488;-78
2021/05/02 06:29:06;;;;;;;16.70;13.67;;;10.30;1.00;;;;;;4917118;29;20495;-78
2021/05/02 06:31:34;;;;;;;17.17;13.30;;;10.30;1.00;;;;;;4892208;29;20981;-77
2021/05/02 06:34:01;;;;;;;13.90;12.37;;;10.30;1.00;;;;;;4903088;29;20499;-77
2021/05/02 06:36:29;;;;;;;16.73;13.40;;;10.30;1.00;;;;;;4911551;29;21089;-77
2021/05/02 06:38:57;;;;;;;14.07;12.33;;;10.30;1.00;;;;;;4896352;29;20571;-80
2021/05/02 06:41:24;;;;;;;15.33;13.40;;;10.40;1.00;;;;;;4887827;29;21279;-76
2021/05/02 06:43:51;;;;;;;18.27;13.73;;;10.60;1.00;;;;;;4902288;29;20847;-77
2021/05/02 06:46:28;;;;;;;14.07;12.57;;;10.60;1.00;;;;;;4904855;29;20468;-77
2021/05/02 06:48:56;;;;;;;15.03;11.53;;;10.70;1.00;;;;;;4898359;29;20875;-79
2021/05/02 06:51:24;;;;;;;16.10;12.93;;;10.90;99.90;;;;;;4897797;29;20462;-77
2021/05/02 06:53:51;;;;;;;13.00;11.70;;;11.20;99.90;;;;;;4893441;29;20505;-78
2021/05/02 06:56:20;;;;;;;15.00;13.43;;;11.10;99.90;;;;;;4904325;29;20516;-79
2021/05/02 06:58:48;;;;;;;15.20;12.40;;;11.10;99.90;;;;;;4917086;29;20477;-77
2021/05/02 07:01:15;;;;;;;13.40;12.10;;;11.10;99.90;;;;;;4902223;29;20475;-77
2021/05/02 07:03:42;;;;;;;13.90;12.50;;;11.20;99.90;;;;;;4902176;29;20470;-79
2021/05/02 07:06:25;;;;;;;16.20;11.90;;;11.10;99.90;;;;;;4905257;29;20483;-76
2021/05/02 07:08:53;;;;;;;15.03;12.17;;;11.20;99.90;;;;;;4897225;29;20722;-79
2021/05/02 07:11:22;;;;;;;13.23;11.83;;;11.30;99.90;;;;;;4883281;29;20556;-78
2021/05/02 07:13:50;;;;;;;13.40;12.00;;;11.40;99.90;;;;;;4899124;29;20484;-77
2021/05/02 07:16:18;;;;;;;14.10;12.03;;;11.50;99.90;;;;;;4896292;29;20466;-77
2021/05/02 07:18:46;;;;;;;15.67;12.30;;;11.60;99.90;;;;;;4884071;29;20617;-77
2021/05/02 07:21:15;;;;;;;11.73;10.60;;;11.80;99.90;;;;;;4883506;29;21274;-77
2021/05/02 07:23:46;;;;;;;16.17;12.57;;;11.90;99.90;;;;;;4886378;29;20483;-75
2021/05/02 07:26:14;;;;;;;11.63;10.47;;;11.90;99.90;;;;;;4885000;29;20467;-76
2021/05/02 07:28:42;;;;;;;17.27;11.13;;;12.00;99.90;;;;;;4884332;29;20491;-76
2021/05/02 07:31:10;;;;;;;12.63;11.30;;;12.00;99.90;;;;;;4891720;29;20712;-76
2021/05/02 07:33:38;;;;;;;12.57;11.27;;;12.00;99.90;;;;;;4885763;29;21029;-77
2021/05/02 07:36:06;;;;;;;11.27;10.17;;;12.00;99.90;;;;;;4886803;29;20482;-77
2021/05/02 07:38:33;;;;;;;12.57;11.13;;;12.10;99.90;;;;;;4890771;29;21139;-78
2021/05/02 07:41:01;;;;;;;12.97;10.40;;;12.10;99.90;;;;;;4894877;29;20471;-78
2021/05/02 07:43:29;;;;;;;12.63;11.33;;;12.10;99.90;;;;;;4895429;29;20472;-77
2021/05/02 07:45:57;;;;;;;12.27;10.17;;;12.10;99.90;;;;;;4892165;29;20461;-77
2021/05/02 07:48:24;;;;;;;13.97;11.57;;;12.10;99.90;;;;;;4894227;29;20470;-78
2021/05/02 07:50:51;;;;;;;11.37;10.23;;;12.10;99.90;;;;;;4891048;29;20486;-77
2021/05/02 07:53:19;;;;;;;12.23;10.90;;;12.10;99.90;;;;;;4891461;29;20476;-77
2021/05/02 07:55:46;;;;;;;12.50;11.30;;;12.00;99.90;;;;;;4896146;29;20499;-77
2021/05/02 07:58:13;;;;;;;10.80;9.70;;;11.90;99.90;;;;;;4902544;29;20465;-77
2021/05/02 08:00:40;;;;;;;11.87;10.53;;;12.00;99.90;;;;;;4902870;29;20750;-78
2021/05/02 08:03:08;;;;;;;12.00;10.90;;;12.00;99.90;;;;;;4904092;29;20470;-79
2021/05/02 08:05:35;;;;;;;12.83;9.70;;;12.00;99.90;;;;;;4901437;29;20467;-73
2021/05/02 08:08:02;;;;;;;11.87;10.57;;;12.00;99.90;;;;;;4899156;29;20609;-76
2021/05/02 08:10:30;;;;;;;12.60;11.17;;;12.10;99.90;;;;;;4893663;29;20519;-77
2021/05/02 08:12:57;;;;;;;13.40;10.90;;;12.20;99.90;;;;;;4898429;29;21373;-77
2021/05/02 08:15:25;;;;;;;12.88;11.68;;;12.40;99.90;;;;;;4900588;29;20469;-80
2021/05/02 08:17:52;;;;;;;12.20;10.27;;;12.50;99.90;;;;;;4902667;29;20218;-78
2021/05/02 08:20:20;;;;;;;12.73;9.77;;;12.20;99.90;;;;;;4904267;29;20482;-79
2021/05/02 08:22:48;;;;;;;11.17;9.97;;;12.30;99.90;;;;;;4902564;29;20499;-78
2021/05/02 08:25:15;;;;;;;11.93;10.03;;;12.40;99.90;;;;;;4901427;29;20474;-78
2021/05/02 08:27:43;;;;;;;11.27;10.27;;;12.30;99.90;;;;;;4902921;29;20484;-78
2021/05/02 08:30:11;;;;;;;10.83;9.83;;;12.30;99.90;;;;;;4902972;29;21008;-78
2021/05/02 08:32:39;;;;;;;12.93;11.82;;;12.30;99.90;;;;;;4903183;29;20464;-78
2021/05/02 08:35:08;;;;;;;11.60;10.50;;;12.30;99.90;;;;;;4903502;29;20240;-79
2021/05/02 08:37:36;;;;;;;11.53;10.33;;;12.30;99.90;;;;;;4904414;29;20486;-77
2021/05/02 08:40:05;;;;;;;13.63;11.30;;;12.20;99.90;;;;;;4904066;29;20500;-77
2021/05/02 08:42:32;;;;;;;12.13;10.90;;;12.20;99.90;;;;;;4901153;29;20464;-80
2021/05/02 08:45:00;;;;;;;12.07;10.23;;;12.20;99.90;;;;;;4903001;29;20469;-77
2021/05/02 08:47:29;;;;;;;11.00;10.00;;;12.20;99.90;;;;;;4903987;29;20446;-77
2021/05/02 08:49:57;;;;;;;11.73;10.57;;;12.50;99.90;;;;;;4890393;29;20507;-76
2021/05/02 08:52:24;;;;;;;14.90;10.73;;;12.30;99.90;;;;;;4903136;29;20474;-78
2021/05/02 08:54:52;;;;;;;13.00;11.80;;;12.20;99.90;;;;;;4895288;29;20501;-77
2021/05/02 08:57:19;;;;;;;11.07;10.07;;;12.20;99.90;;;;;;4899612;29;20468;-78
2021/05/02 08:59:46;;;;;;;12.20;10.30;;;12.10;99.90;;;;;;4901041;29;20499;-75
2021/05/02 09:02:22;;;;;;;13.97;10.83;;;12.20;99.90;;;;;;4905116;29;21351;-79
2021/05/02 09:04:54;;;;;;;14.43;10.77;;;12.30;99.90;;;;;;4901993;29;20834;-76
2021/05/02 09:07:22;;;;;;;10.80;9.80;;;12.60;99.90;;;;;;4903611;29;20471;-80
2021/05/02 09:09:50;;;;;;;11.47;10.47;;;12.40;99.90;;;;;;4905023;29;20498;-79
2021/05/02 09:12:23;;;;;;;10.70;9.63;;;12.50;99.90;;;;;;4898250;29;21084;-77
2021/05/02 09:14:52;;;;;;;11.80;10.20;;;12.60;99.90;;;;;;4894441;29;20505;-79
2021/05/02 09:17:26;;;;;;;12.20;11.00;;;12.70;99.90;;;;;;4904134;29;20482;-75
2021/05/02 09:19:56;;;;;;;12.50;11.23;;;12.80;99.90;;;;;;4905016;29;20503;-80
2021/05/02 09:22:24;;;;;;;14.80;11.63;;;12.90;99.90;;;;;;4895450;29;20474;-78
2021/05/02 09:25:03;;;;;;;13.67;11.43;;;12.90;99.90;;;;;;4902913;29;20464;-77
2021/05/02 09:27:31;;;;;;;15.97;11.70;;;12.90;99.90;;;;;;4888398;29;20463;-78
2021/05/02 09:30:13;;;;;;;14.50;12.60;;;12.90;99.90;;;;;;4905511;29;20891;-78
2021/05/02 09:32:44;;;;;;;12.70;11.33;;;12.90;99.90;;;;;;4893477;29;20230;-78
2021/05/02 09:35:25;;;;;;;13.87;11.23;;;12.90;99.90;;;;;;4897319;29;20489;-77
2021/05/02 09:38:08;;;;;;;16.30;12.63;;;12.90;99.90;;;;;;4901672;29;20475;-80
2021/05/02 09:40:48;;;;;;;13.83;12.53;;;13.00;99.90;;;;;;4898982;29;20849;-77
2021/05/02 09:43:37;;;;;;;15.07;12.70;;;13.00;99.90;;;;;;4903738;29;20468;-79
2021/05/02 09:46:24;;;;;;;16.20;14.03;;;13.00;99.90;;;;;;4905730;29;20980;-76
2021/05/02 09:49:00;;;;;;;13.53;12.23;;;12.90;99.90;;;;;;4903849;29;20966;-77
2021/05/02 09:51:30;;;;;;;12.23;11.00;;;12.70;99.90;;;;;;4900395;29;20467;-79
2021/05/02 09:54:08;;;;;;;12.87;11.57;;;12.80;99.90;;;;;;4898676;29;20463;-78
2021/05/02 09:56:41;;;;;;;13.73;12.40;;;12.80;99.90;;;;;;4904651;29;20458;-78
2021/05/02 09:59:28;;;;;;;13.80;12.40;;;12.70;99.90;;;;;;4898559;29;20507;-78
2021/05/02 10:02:30;;;;;;;13.37;12.07;;;12.80;99.90;;;;;;4901013;29;20471;-78
2021/05/02 10:05:08;;;;;;;13.33;11.90;;;12.70;99.90;;;;;;4905694;29;20465;-76
2021/05/02 10:07:35;;;;;;;13.40;11.80;;;12.80;99.90;;;;;;4905833;29;21140;-77
2021/05/02 10:10:06;;;;;;;13.57;12.17;;;12.90;99.90;;;;;;4903142;29;21406;-76
2021/05/02 10:12:33;;;;;;;14.40;12.70;;;13.00;99.90;;;;;;4904557;29;20471;-77
2021/05/02 10:15:02;;;;;;;13.20;11.70;;;13.00;99.90;;;;;;4902555;29;20487;-77
2021/05/02 10:17:29;;;;;;;12.90;11.57;;;13.00;99.90;;;;;;4905758;29;20855;-75
2021/05/02 10:19:56;;;;;;;12.03;10.83;;;13.00;99.90;;;;;;4902728;29;20486;-75
2021/05/02 10:22:24;;;;;;;13.47;11.20;;;13.10;99.90;;;;;;4917565;29;20577;-75
2021/05/02 10:24:52;;;;;;;11.83;10.70;;;13.10;99.90;;;;;;4896990;29;20485;-74
2021/05/02 10:27:21;;;;;;;11.83;10.60;;;13.10;99.90;;;;;;4902009;29;21201;-73
2021/05/02 10:29:50;;;;;;;11.57;10.50;;;13.10;99.90;;;;;;4901605;29;20606;-74
2021/05/02 10:32:22;;;;;;;14.03;11.00;;;13.10;99.90;;;;;;4902299;29;20469;-73
2021/05/02 10:34:56;;;;;;;12.20;11.00;;;13.10;99.20;;;;;;4905125;29;20496;-76
2021/05/02 10:37:29;;;;;;;14.27;11.57;;;13.10;99.90;;;;;;4902534;29;20469;-74
2021/05/02 10:39:58;;;;;;;10.90;9.90;;;13.10;97.60;;;;;;4900912;29;20496;-77
2021/05/02 10:42:49;;;;;;;12.77;11.57;;;13.20;99.90;;;;;;4900102;29;20481;-78
2021/05/02 10:45:41;;;;;;;13.17;11.87;;;13.30;97.50;;;;;;4905543;29;20462;-78
2021/05/02 10:48:36;;;;;;;13.00;11.70;;;13.20;97.70;;;;;;4902059;29;20458;-79
2021/05/02 10:51:24;;;;;;;15.90;11.07;;;13.20;97.70;;;;;;4904674;29;20216;-76
2021/05/02 10:54:12;;;;;;;12.73;11.37;;;13.40;99.90;;;;;;4890303;29;20460;-78
2021/05/02 10:56:47;;;;;;;12.97;10.83;;;13.50;99.90;;;;;;4905023;29;20465;-78
2021/05/02 10:59:15;;;;;;;11.50;10.33;;;13.50;99.90;;;;;;4899243;29;20494;-77
2021/05/02 11:01:43;;;;;;;12.10;10.87;;;13.40;98.00;;;;;;4905992;29;20462;-78
2021/05/02 11:04:12;;;;;;;14.83;11.70;;;13.40;98.60;;;;;;4904895;29;20468;-78
2021/05/02 11:07:01;;;;;;;11.53;10.33;;;13.50;99.90;;;;;;4904478;29;20466;-76
2021/05/02 11:09:50;;;;;;;11.97;10.77;;;13.50;99.90;;;;;;4898803;29;20498;-77
2021/05/02 11:12:27;;;;;;;15.05;13.43;;;13.40;99.90;;;;;;4900783;29;20526;-78
2021/05/02 11:14:54;;;;;;;11.57;10.37;;;13.30;99.90;;;;;;4902880;29;20229;-78
2021/05/02 11:17:31;;;;;;;12.23;11.03;;;13.40;99.90;;;;;;4903523;29;20457;-79
2021/05/02 11:20:03;;;;;;;13.20;10.60;;;13.30;99.90;;;;;;4899211;29;20477;-77
2021/05/02 11:22:30;;;;;;;12.60;11.30;;;13.40;99.90;;;;;;4902628;29;20462;-77
2021/05/02 11:24:59;;;;;;;13.40;12.10;;;13.40;99.90;;;;;;4902828;29;20698;-78
2021/05/02 11:27:43;;;;;;;13.77;12.30;;;13.60;99.90;;;;;;4900958;29;21006;-76
2021/05/02 11:30:21;;;;;;;13.00;11.80;;;13.60;99.90;;;;;;4904724;29;21010;-80
2021/05/02 11:32:50;;;;;;;13.40;11.93;;;13.60;99.90;;;;;;4904903;29;20468;-77
2021/05/02 11:35:22;;;;;;;14.00;12.50;;;13.50;99.90;;;;;;4903217;29;20570;-78
2021/05/02 11:37:54;;;;;;;13.40;12.00;;;13.40;99.90;;;;;;4895351;29;20446;-76
2021/05/02 11:40:40;;;;;;;18.70;11.23;;;13.40;99.90;;;;;;4885762;29;20488;-75
2021/05/02 11:43:11;;;;;;;13.07;11.80;;;13.50;99.90;;;;;;4903083;29;20473;-79
2021/05/02 11:45:48;;;;;;;14.73;13.17;;;13.40;99.90;;;;;;4900793;29;20504;-78
2021/05/02 11:48:20;;;;;;;13.67;12.27;;;13.40;99.90;;;;;;4900712;29;20477;-76
2021/05/02 11:50:52;;;;;;;15.70;13.90;;;13.40;99.90;;;;;;4904466;29;20486;-76
2021/05/02 11:53:39;;;;;;;11.90;10.77;;;13.40;99.90;;;;;;4902290;29;20462;-74
2021/05/02 11:56:11;;;;;;;13.63;11.80;;;13.40;99.90;;;;;;4895251;29;20486;-73
2021/05/02 11:58:40;;;;;;;14.60;13.03;;;13.40;99.90;;;;;;4901104;29;20917;-77
2021/05/02 12:01:18;;;;;;;11.23;10.23;;;13.50;99.90;;;;;;4900677;29;20838;-75
2021/05/02 12:03:47;;;;;;;12.32;11.23;;;13.10;99.90;;;;;;4896916;29;20470;-77
2021/05/02 12:06:27;;;;;;;10.03;9.17;;;13.40;99.90;;;;;;4909462;29;20234;-77
2021/05/02 12:08:56;;;;;;;9.40;8.50;;;13.20;99.90;;;;;;4893318;29;20880;-78
2021/05/02 12:11:24;;;;;;;10.47;9.50;;;13.10;99.90;;;;;;4894178;29;20465;-78
2021/05/02 12:13:54;;;;;;;11.63;10.43;;;12.80;99.90;;;;;;4894709;29;20458;-76
2021/05/02 12:16:23;;;;;;;13.20;11.80;;;12.60;99.90;;;;;;4902954;29;20229;-77
2021/05/02 12:19:00;;;;;;;11.27;10.07;;;12.40;99.90;;;;;;4896774;29;20742;-76
2021/05/02 12:21:34;;;;;;;11.20;10.03;;;12.40;99.90;;;;;;4899876;29;20469;-78
2021/05/02 12:24:10;;;;;;;10.10;9.13;;;12.40;99.90;;;;;;4900915;29;20476;-75
2021/05/02 12:26:44;;;;;;;9.60;8.70;;;12.50;99.90;;;;;;4898379;29;20461;-79
2021/05/02 12:29:13;;;;;;;10.33;9.27;;;12.60;99.90;;;;;;4901587;29;20490;-79
2021/05/02 12:31:41;;;;;;;10.50;9.57;;;12.70;99.90;;;;;;4904481;29;20504;-77
2021/05/02 12:34:10;;;;;;;15.90;12.83;;;12.80;99.90;;;;;;4919185;29;20467;-76
2021/05/02 12:36:38;;;;;;;11.57;9.87;;;12.90;99.90;;;;;;4884173;29;20485;-79
2021/05/02 12:39:08;;;;;;;10.80;9.90;;;13.00;99.90;;;;;;4920747;29;20568;-77
2021/05/02 12:41:36;;;;;;;11.00;10.00;;;13.10;99.90;;;;;;4903825;29;20491;-79
2021/05/02 12:44:19;;;;;;;9.23;8.40;;;13.20;99.90;;;;;;4908561;29;20486;-78
2021/05/02 12:46:48;;;;;;;8.90;8.20;;;13.30;99.90;;;;;;4904382;29;20470;-79
2021/05/02 12:49:21;;;;;;;9.20;8.40;;;13.40;99.90;;;;;;4893545;29;20477;-75